sensor_id;sensor_type;location;lat;lon;timestamp;pressure;altitude;pressure_sealevel;temperature;humidity
75895;BME280;64573;50.328;15.014;2023-05-27T00:00:40;99793.50;;;8.90;67.97
75895;BME280;64573;50.328;15.014;2023-05-27T00:05:43;99795.97;;;8.56;69.82
75895;BME280;64573;50.328;15.014;2023-05-27T00:08:09;99799.63;;;8.55;69.15
75895;BME280;64573;50.328;15.014;2023-05-27T00:10:34;99797.53;;;8.49;68.69
75895;BME280;64573;50.328;15.014;2023-05-27T00:36:16;99795.19;;;7.80;73.82
75895;BME280;64573;50.328;15.014;2023-05-27T01:51:07;99777.44;;;6.13;84.70
75895;BME280;64573;50.328;15.014;2023-05-27T01:53:32;99776.28;;;6.05;84.53
75895;BME280;64573;50.328;15.014;2023-05-27T01:55:57;99780.81;;;5.94;84.78
75895;BME280;64573;50.328;15.014;2023-05-27T02:21:39;99798.50;;;5.21;87.93
75895;BME280;64573;50.328;15.014;2023-05-27T02:31:50;99793.81;;;4.81;88.99
75895;BME280;64573;50.328;15.014;2023-05-27T02:39:25;99793.66;;;4.83;89.47
75895;BME280;64573;50.328;15.014;2023-05-27T02:54:43;99794.81;;;4.47;90.66
75895;BME280;64573;50.328;15.014;2023-05-27T02:57:08;99795.78;;;4.46;91.08
75895;BME280;64573;50.328;15.014;2023-05-27T02:59:34;99791.44;;;4.33;91.61
75895;BME280;64573;50.328;15.014;2023-05-27T03:01:59;99795.19;;;4.31;91.61
75895;BME280;64573;50.328;15.014;2023-05-27T03:04:24;99793.03;;;4.36;91.35
75895;BME280;64573;50.328;15.014;2023-05-27T03:06:50;99794.00;;;4.35;91.79
75895;BME280;64573;50.328;15.014;2023-05-27T03:09:15;99794.72;;;4.37;92.17
75895;BME280;64573;50.328;15.014;2023-05-27T03:11:41;99789.41;;;4.37;92.60
75895;BME280;64573;50.328;15.014;2023-05-27T03:14:06;99795.22;;;4.42;92.82
75895;BME280;64573;50.328;15.014;2023-05-27T03:16:31;99793.28;;;4.44;92.77
75895;BME280;64573;50.328;15.014;2023-05-27T03:18:57;99800.03;;;4.37;92.38
75895;BME280;64573;50.328;15.014;2023-05-27T03:21:22;99810.78;;;4.35;92.60
75895;BME280;64573;50.328;15.014;2023-05-27T03:23:47;99801.47;;;4.41;92.31
75895;BME280;64573;50.328;15.014;2023-05-27T03:26:13;99796.75;;;4.45;92.25
75895;BME280;64573;50.328;15.014;2023-05-27T03:56:55;99801.53;;;5.90;88.09
75895;BME280;64573;50.328;15.014;2023-05-27T04:09:41;99820.59;;;6.87;85.03
75895;BME280;64573;50.328;15.014;2023-05-27T04:19:52;99833.97;;;7.74;80.78
75895;BME280;64573;50.328;15.014;2023-05-27T04:22:17;99836.91;;;7.81;79.95
75895;BME280;64573;50.328;15.014;2023-05-27T04:29:53;99832.31;;;8.76;77.56
75895;BME280;64573;50.328;15.014;2023-05-27T04:32:18;99826.63;;;9.07;75.60
75895;BME280;64573;50.328;15.014;2023-05-27T04:34:45;99834.16;;;9.21;74.68
75895;BME280;64573;50.328;15.014;2023-05-27T04:37:11;99836.13;;;9.37;74.11
75895;BME280;64573;50.328;15.014;2023-05-27T04:39:36;99828.09;;;9.73;73.52
75895;BME280;64573;50.328;15.014;2023-05-27T04:42:01;99834.69;;;10.04;71.71
75895;BME280;64573;50.328;15.014;2023-05-27T04:54:47;99833.41;;;11.11;65.89
75895;BME280;64573;50.328;15.014;2023-05-27T04:59:48;99835.22;;;11.02;65.92
75895;BME280;64573;50.328;15.014;2023-05-27T05:02:33;99837.28;;;11.16;66.37
75895;BME280;64573;50.328;15.014;2023-05-27T05:05:09;99835.91;;;11.12;64.61
75895;BME280;64573;50.328;15.014;2023-05-27T05:07:38;99842.50;;;11.42;64.83
75895;BME280;64573;50.328;15.014;2023-05-27T05:10:09;99849.94;;;11.65;64.59
75895;BME280;64573;50.328;15.014;2023-05-27T05:12:35;99851.81;;;11.97;63.17
75895;BME280;64573;50.328;15.014;2023-05-27T05:15:02;99841.38;;;12.18;61.63
75895;BME280;64573;50.328;15.014;2023-05-27T05:17:27;99842.41;;;11.84;63.26
75895;BME280;64573;50.328;15.014;2023-05-27T05:19:53;99836.34;;;12.15;63.53
75895;BME280;64573;50.328;15.014;2023-05-27T05:22:18;99837.84;;;12.09;63.35
75895;BME280;64573;50.328;15.014;2023-05-27T05:24:45;99837.16;;;12.24;63.03
75895;BME280;64573;50.328;15.014;2023-05-27T05:27:11;99838.59;;;12.59;60.21
75895;BME280;64573;50.328;15.014;2023-05-27T05:34:43;99839.16;;;12.46;56.93
75895;BME280;64573;50.328;15.014;2023-05-27T06:05:36;99860.25;;;14.95;54.00
75895;BME280;64573;50.328;15.014;2023-05-27T06:08:01;99865.00;;;14.25;55.04
75895;BME280;64573;50.328;15.014;2023-05-27T06:10:26;99865.34;;;14.89;53.97
75895;BME280;64573;50.328;15.014;2023-05-27T06:12:54;99861.44;;;14.77;54.61
75895;BME280;64573;50.328;15.014;2023-05-27T06:15:20;99861.09;;;15.31;53.58
75895;BME280;64573;50.328;15.014;2023-05-27T06:17:45;99867.31;;;14.96;53.13
75895;BME280;64573;50.328;15.014;2023-05-27T06:20:12;99859.66;;;16.14;51.15
75895;BME280;64573;50.328;15.014;2023-05-27T06:25:13;99862.47;;;16.55;46.82
75895;BME280;64573;50.328;15.014;2023-05-27T06:27:38;99867.41;;;16.73;47.47
75895;BME280;64573;50.328;15.014;2023-05-27T06:30:04;99868.78;;;16.35;48.19
75895;BME280;64573;50.328;15.014;2023-05-27T06:32:30;99872.88;;;16.24;47.78
75895;BME280;64573;50.328;15.014;2023-05-27T06:34:55;99875.47;;;16.67;46.50
75895;BME280;64573;50.328;15.014;2023-05-27T06:37:20;99875.25;;;16.96;45.34
75895;BME280;64573;50.328;15.014;2023-05-27T06:39:48;99885.91;;;17.04;45.07
75895;BME280;64573;50.328;15.014;2023-05-27T06:42:14;99881.16;;;17.13;45.09
75895;BME280;64573;50.328;15.014;2023-05-27T06:44:40;99877.31;;;17.42;45.54
75895;BME280;64573;50.328;15.014;2023-05-27T06:47:05;99878.09;;;16.81;46.86
75895;BME280;64573;50.328;15.014;2023-05-27T06:52:06;99874.75;;;18.22;42.31
75895;BME280;64573;50.328;15.014;2023-05-27T06:54:32;99878.69;;;18.79;41.42
75895;BME280;64573;50.328;15.014;2023-05-27T06:56:57;99876.63;;;18.21;43.83
75895;BME280;64573;50.328;15.014;2023-05-27T06:59:23;99869.66;;;18.98;41.28
75895;BME280;64573;50.328;15.014;2023-05-27T07:01:48;99882.41;;;20.19;38.63
75895;BME280;64573;50.328;15.014;2023-05-27T07:04:13;99875.00;;;21.12;35.62
75895;BME280;64573;50.328;15.014;2023-05-27T07:06:39;99876.97;;;21.24;35.24
75895;BME280;64573;50.328;15.014;2023-05-27T07:09:04;99880.38;;;19.76;39.41
75895;BME280;64573;50.328;15.014;2023-05-27T07:11:31;99877.31;;;19.97;39.93
75895;BME280;64573;50.328;15.014;2023-05-27T07:13:56;99874.31;;;20.05;39.60
75895;BME280;64573;50.328;15.014;2023-05-27T07:16:22;99874.56;;;19.72;38.74
75895;BME280;64573;50.328;15.014;2023-05-27T07:18:47;99876.81;;;19.37;39.70
75895;BME280;64573;50.328;15.014;2023-05-27T07:21:12;99877.69;;;20.32;39.86
75895;BME280;64573;50.328;15.014;2023-05-27T07:23:38;99879.91;;;20.85;36.64
75895;BME280;64573;50.328;15.014;2023-05-27T07:26:03;99876.25;;;20.55;36.23
75895;BME280;64573;50.328;15.014;2023-05-27T07:28:28;99872.69;;;20.54;37.47
75895;BME280;64573;50.328;15.014;2023-05-27T07:30:54;99868.94;;;20.92;36.27
75895;BME280;64573;50.328;15.014;2023-05-27T07:33:20;99861.66;;;21.71;35.36
75895;BME280;64573;50.328;15.014;2023-05-27T07:35:45;99873.13;;;20.95;36.37
75895;BME280;64573;50.328;15.014;2023-05-27T07:38:10;99873.59;;;20.42;36.75
75895;BME280;64573;50.328;15.014;2023-05-27T07:40:36;99870.72;;;18.90;40.15
75895;BME280;64573;50.328;15.014;2023-05-27T07:43:01;99870.78;;;20.55;36.60
75895;BME280;64573;50.328;15.014;2023-05-27T07:45:28;99882.94;;;21.14;35.38
75895;BME280;64573;50.328;15.014;2023-05-27T07:47:53;99871.94;;;21.57;35.08
75895;BME280;64573;50.328;15.014;2023-05-27T07:50:18;99874.22;;;22.02;33.40
75895;BME280;64573;50.328;15.014;2023-05-27T07:52:44;99862.22;;;21.61;34.84
75895;BME280;64573;50.328;15.014;2023-05-27T07:55:09;99866.03;;;20.50;36.99
75895;BME280;64573;50.328;15.014;2023-05-27T07:57:34;99857.84;;;20.25;37.41
75895;BME280;64573;50.328;15.014;2023-05-27T08:00:00;99853.72;;;20.16;38.10
75895;BME280;64573;50.328;15.014;2023-05-27T08:02:25;99853.78;;;21.14;36.53
75895;BME280;64573;50.328;15.014;2023-05-27T08:04:51;99861.72;;;20.11;38.71
75895;BME280;64573;50.328;15.014;2023-05-27T08:09:42;99850.38;;;19.89;37.96
75895;BME280;64573;50.328;15.014;2023-05-27T08:12:07;99844.03;;;20.88;37.39
75895;BME280;64573;50.328;15.014;2023-05-27T08:14:34;99843.91;;;21.80;36.79
75895;BME280;64573;50.328;15.014;2023-05-27T08:16:59;99848.19;;;21.99;36.31
75895;BME280;64573;50.328;15.014;2023-05-27T08:19:25;99846.44;;;20.10;38.64
75895;BME280;64573;50.328;15.014;2023-05-27T08:21:50;99838.50;;;19.39;39.01
75895;BME280;64573;50.328;15.014;2023-05-27T08:24:15;99844.44;;;20.49;37.89
75895;BME280;64573;50.328;15.014;2023-05-27T08:26:41;99843.56;;;21.28;37.52
75895;BME280;64573;50.328;15.014;2023-05-27T08:29:06;99849.69;;;21.24;36.35
75895;BME280;64573;50.328;15.014;2023-05-27T08:31:31;99840.28;;;21.19;36.04
75895;BME280;64573;50.328;15.014;2023-05-27T08:33:57;99833.41;;;22.77;34.35
75895;BME280;64573;50.328;15.014;2023-05-27T08:36:22;99835.56;;;22.17;34.45
75895;BME280;64573;50.328;15.014;2023-05-27T08:38:47;99839.56;;;22.73;32.81
75895;BME280;64573;50.328;15.014;2023-05-27T08:41:13;99830.81;;;23.51;32.46
75895;BME280;64573;50.328;15.014;2023-05-27T08:43:40;99838.50;;;24.11;31.27
75895;BME280;64573;50.328;15.014;2023-05-27T08:46:07;99840.69;;;22.60;33.31
75895;BME280;64573;50.328;15.014;2023-05-27T08:48:33;99825.69;;;22.51;33.81
75895;BME280;64573;50.328;15.014;2023-05-27T08:50:58;99830.22;;;21.20;35.41
75895;BME280;64573;50.328;15.014;2023-05-27T08:53:26;99833.81;;;21.02;35.68
75895;BME280;64573;50.328;15.014;2023-05-27T08:55:52;99825.75;;;21.44;34.78
75895;BME280;64573;50.328;15.014;2023-05-27T08:58:20;99823.38;;;20.37;36.51
75895;BME280;64573;50.328;15.014;2023-05-27T09:00:45;99820.16;;;20.47;38.30
75895;BME280;64573;50.328;15.014;2023-05-27T09:03:10;99818.16;;;21.46;36.27
75895;BME280;64573;50.328;15.014;2023-05-27T09:08:08;99817.25;;;23.28;31.98
75895;BME280;64573;50.328;15.014;2023-05-27T09:10:35;99813.81;;;22.22;35.00
75895;BME280;64573;50.328;15.014;2023-05-27T09:13:01;99816.88;;;21.60;33.86
75895;BME280;64573;50.328;15.014;2023-05-27T09:15:27;99806.50;;;21.39;33.83
75895;BME280;64573;50.328;15.014;2023-05-27T09:17:52;99807.09;;;21.41;33.27
75895;BME280;64573;50.328;15.014;2023-05-27T09:20:24;99808.66;;;19.70;36.96
75895;BME280;64573;50.328;15.014;2023-05-27T09:22:56;99803.72;;;20.90;32.62
75895;BME280;64573;50.328;15.014;2023-05-27T09:25:24;99803.03;;;21.43;32.88
75895;BME280;64573;50.328;15.014;2023-05-27T09:27:49;99803.94;;;21.56;31.52
75895;BME280;64573;50.328;15.014;2023-05-27T09:30:18;99794.47;;;21.70;31.47
75895;BME280;64573;50.328;15.014;2023-05-27T09:32:44;99797.88;;;22.66;30.57
75895;BME280;64573;50.328;15.014;2023-05-27T09:35:11;99806.16;;;23.34;29.58
75895;BME280;64573;50.328;15.014;2023-05-27T09:37:36;99795.75;;;23.93;28.66
75895;BME280;64573;50.328;15.014;2023-05-27T09:40:10;99795.25;;;24.13;28.12
75895;BME280;64573;50.328;15.014;2023-05-27T09:42:44;99797.44;;;24.89;27.70
75895;BME280;64573;50.328;15.014;2023-05-27T09:45:20;99789.50;;;22.96;29.15
75895;BME280;64573;50.328;15.014;2023-05-27T09:47:52;99793.03;;;22.33;29.09
75895;BME280;64573;50.328;15.014;2023-05-27T09:50:19;99794.22;;;22.48;31.52
75895;BME280;64573;50.328;15.014;2023-05-27T09:52:46;99789.69;;;22.30;32.88
75895;BME280;64573;50.328;15.014;2023-05-27T09:55:13;99790.34;;;24.15;29.89
75895;BME280;64573;50.328;15.014;2023-05-27T09:57:39;99787.09;;;23.39;29.21
75895;BME280;64573;50.328;15.014;2023-05-27T10:00:07;99786.53;;;24.55;28.90
75895;BME280;64573;50.328;15.014;2023-05-27T10:02:46;99778.16;;;25.27;27.11
75895;BME280;64573;50.328;15.014;2023-05-27T10:05:15;99778.84;;;25.99;25.56
75895;BME280;64573;50.328;15.014;2023-05-27T10:07:43;99770.44;;;24.59;27.11
75895;BME280;64573;50.328;15.014;2023-05-27T10:10:10;99771.88;;;25.59;26.78
75895;BME280;64573;50.328;15.014;2023-05-27T10:12:38;99764.41;;;25.27;26.87
75895;BME280;64573;50.328;15.014;2023-05-27T10:15:05;99768.09;;;24.12;29.17
75895;BME280;64573;50.328;15.014;2023-05-27T10:17:46;99767.19;;;21.10;32.84
75895;BME280;64573;50.328;15.014;2023-05-27T10:20:12;99754.78;;;20.22;33.24
75895;BME280;64573;50.328;15.014;2023-05-27T10:22:43;99754.72;;;20.84;33.57
75895;BME280;64573;50.328;15.014;2023-05-27T10:25:12;99749.81;;;21.23;32.44
75895;BME280;64573;50.328;15.014;2023-05-27T10:27:45;99742.03;;;23.30;29.05
75895;BME280;64573;50.328;15.014;2023-05-27T10:30:12;99742.78;;;22.97;31.30
75895;BME280;64573;50.328;15.014;2023-05-27T10:32:48;99740.19;;;22.91;29.87
75895;BME280;64573;50.328;15.014;2023-05-27T10:37:41;99732.72;;;22.74;30.30
75895;BME280;64573;50.328;15.014;2023-05-27T10:40:08;99735.28;;;22.81;29.92
75895;BME280;64573;50.328;15.014;2023-05-27T10:42:33;99735.34;;;21.52;30.78
75895;BME280;64573;50.328;15.014;2023-05-27T10:45:08;99729.75;;;21.47;32.09
75895;BME280;64573;50.328;15.014;2023-05-27T10:47:35;99735.50;;;22.04;31.77
75895;BME280;64573;50.328;15.014;2023-05-27T10:50:10;99719.59;;;21.66;30.27
75895;BME280;64573;50.328;15.014;2023-05-27T10:52:42;99720.00;;;22.68;29.81
75895;BME280;64573;50.328;15.014;2023-05-27T10:55:11;99731.97;;;23.98;28.47
75895;BME280;64573;50.328;15.014;2023-05-27T10:57:49;99721.06;;;23.07;28.25
75895;BME280;64573;50.328;15.014;2023-05-27T11:00:17;99720.44;;;23.17;30.42
75895;BME280;64573;50.328;15.014;2023-05-27T11:02:48;99712.13;;;22.32;29.26
75895;BME280;64573;50.328;15.014;2023-05-27T11:05:14;99718.88;;;22.29;30.72
75895;BME280;64573;50.328;15.014;2023-05-27T11:07:40;99711.44;;;22.76;28.82
75895;BME280;64573;50.328;15.014;2023-05-27T11:10:09;99714.75;;;22.90;28.87
75895;BME280;64573;50.328;15.014;2023-05-27T11:12:35;99711.16;;;23.80;28.79
75895;BME280;64573;50.328;15.014;2023-05-27T11:15:01;99715.06;;;23.39;28.41
75895;BME280;64573;50.328;15.014;2023-05-27T11:17:27;99708.97;;;23.03;30.90
75895;BME280;64573;50.328;15.014;2023-05-27T11:19:54;99709.91;;;22.69;29.13
75895;BME280;64573;50.328;15.014;2023-05-27T11:22:20;99701.22;;;23.46;29.93
75895;BME280;64573;50.328;15.014;2023-05-27T11:24:58;99685.06;;;21.95;31.01
75895;BME280;64573;50.328;15.014;2023-05-27T11:27:24;99694.31;;;21.82;33.48
75895;BME280;64573;50.328;15.014;2023-05-27T11:29:57;99685.03;;;21.71;30.99
75895;BME280;64573;50.328;15.014;2023-05-27T11:32:22;99683.78;;;22.61;30.62
75895;BME280;64573;50.328;15.014;2023-05-27T11:34:47;99683.63;;;24.09;30.33
75895;BME280;64573;50.328;15.014;2023-05-27T11:37:13;99675.41;;;22.39;30.44
75895;BME280;64573;50.328;15.014;2023-05-27T11:39:49;99671.78;;;20.91;33.57
75895;BME280;64573;50.328;15.014;2023-05-27T11:44:50;99663.56;;;21.21;34.10
75895;BME280;64573;50.328;15.014;2023-05-27T11:47:16;99669.72;;;20.57;35.08
75895;BME280;64573;50.328;15.014;2023-05-27T11:49:41;99675.16;;;21.05;34.24
75895;BME280;64573;50.328;15.014;2023-05-27T11:52:07;99663.56;;;20.50;33.86
75895;BME280;64573;50.328;15.014;2023-05-27T11:54:32;99654.91;;;20.53;34.89
75895;BME280;64573;50.328;15.014;2023-05-27T11:56:58;99660.44;;;21.06;33.75
75895;BME280;64573;50.328;15.014;2023-05-27T11:59:25;99647.06;;;21.05;33.02
75895;BME280;64573;50.328;15.014;2023-05-27T12:01:52;99661.09;;;21.20;35.41
75895;BME280;64573;50.328;15.014;2023-05-27T12:04:20;99652.19;;;20.83;34.73
75895;BME280;64573;50.328;15.014;2023-05-27T12:06:46;99644.19;;;21.41;33.26
75895;BME280;64573;50.328;15.014;2023-05-27T12:09:12;99643.84;;;21.96;31.90
75895;BME280;64573;50.328;15.014;2023-05-27T12:11:39;99625.00;;;21.60;33.13
75895;BME280;64573;50.328;15.014;2023-05-27T12:14:05;99649.53;;;21.48;33.40
75895;BME280;64573;50.328;15.014;2023-05-27T12:16:31;99634.13;;;21.77;32.09
75895;BME280;64573;50.328;15.014;2023-05-27T12:18:57;99640.53;;;21.83;33.03
75895;BME280;64573;50.328;15.014;2023-05-27T12:21:23;99643.22;;;21.94;34.15
75895;BME280;64573;50.328;15.014;2023-05-27T12:23:48;99636.72;;;21.72;33.25
75895;BME280;64573;50.328;15.014;2023-05-27T12:26:15;99635.91;;;21.71;34.12
75895;BME280;64573;50.328;15.014;2023-05-27T12:28:41;99638.25;;;21.33;33.75
75895;BME280;64573;50.328;15.014;2023-05-27T12:31:07;99633.13;;;22.07;32.48
75895;BME280;64573;50.328;15.014;2023-05-27T12:33:33;99633.38;;;22.05;33.10
75895;BME280;64573;50.328;15.014;2023-05-27T12:35:59;99621.53;;;21.76;32.46
75895;BME280;64573;50.328;15.014;2023-05-27T12:38:24;99629.34;;;22.19;33.05
75895;BME280;64573;50.328;15.014;2023-05-27T12:40:49;99621.44;;;23.03;30.25
75895;BME280;64573;50.328;15.014;2023-05-27T12:43:15;99623.72;;;23.96;28.81
75895;BME280;64573;50.328;15.014;2023-05-27T12:45:41;99617.66;;;24.81;28.25
75895;BME280;64573;50.328;15.014;2023-05-27T12:48:06;99621.34;;;24.92;29.06
75895;BME280;64573;50.328;15.014;2023-05-27T12:50:31;99626.94;;;22.63;31.46
75895;BME280;64573;50.328;15.014;2023-05-27T12:52:57;99617.44;;;23.78;31.59
75895;BME280;64573;50.328;15.014;2023-05-27T12:55:22;99610.69;;;22.56;31.89
75895;BME280;64573;50.328;15.014;2023-05-27T12:57:50;99610.56;;;22.51;31.22
75895;BME280;64573;50.328;15.014;2023-05-27T13:00:16;99614.88;;;23.38;31.47
75895;BME280;64573;50.328;15.014;2023-05-27T13:02:41;99608.31;;;24.33;30.28
75895;BME280;64573;50.328;15.014;2023-05-27T13:05:08;99607.75;;;23.71;31.05
75895;BME280;64573;50.328;15.014;2023-05-27T13:07:34;99602.44;;;24.03;30.50
75895;BME280;64573;50.328;15.014;2023-05-27T13:10:04;99597.75;;;23.26;30.96
75895;BME280;64573;50.328;15.014;2023-05-27T13:12:32;99599.38;;;23.10;32.73
75895;BME280;64573;50.328;15.014;2023-05-27T13:14:58;99594.91;;;23.93;31.89
75895;BME280;64573;50.328;15.014;2023-05-27T13:17:24;99594.56;;;23.67;31.70
75895;BME280;64573;50.328;15.014;2023-05-27T13:19:49;99583.69;;;22.89;31.77
75895;BME280;64573;50.328;15.014;2023-05-27T13:22:15;99583.94;;;22.58;32.44
75895;BME280;64573;50.328;15.014;2023-05-27T13:24:40;99586.06;;;23.86;31.81
75895;BME280;64573;50.328;15.014;2023-05-27T13:27:06;99579.31;;;23.93;30.49
75895;BME280;64573;50.328;15.014;2023-05-27T13:29:33;99578.25;;;24.65;28.64
75895;BME280;64573;50.328;15.014;2023-05-27T13:31:59;99574.19;;;25.69;29.19
75895;BME280;64573;50.328;15.014;2023-05-27T13:34:24;99576.28;;;24.61;31.02
75895;BME280;64573;50.328;15.014;2023-05-27T13:36:50;99582.91;;;24.92;30.61
75895;BME280;64573;50.328;15.014;2023-05-27T13:39:15;99566.69;;;23.37;31.18
75895;BME280;64573;50.328;15.014;2023-05-27T13:41:40;99567.69;;;23.48;31.56
75895;BME280;64573;50.328;15.014;2023-05-27T13:44:06;99568.53;;;24.53;29.31
75895;BME280;64573;50.328;15.014;2023-05-27T13:46:31;99571.84;;;24.11;29.50
75895;BME280;64573;50.328;15.014;2023-05-27T13:48:57;99562.75;;;23.83;30.88
75895;BME280;64573;50.328;15.014;2023-05-27T13:51:22;99564.69;;;23.49;31.58
75895;BME280;64573;50.328;15.014;2023-05-27T13:53:48;99558.94;;;24.82;29.15
75895;BME280;64573;50.328;15.014;2023-05-27T13:56:16;99556.88;;;25.69;29.87
75895;BME280;64573;50.328;15.014;2023-05-27T13:58:41;99545.34;;;25.24;28.87
75895;BME280;64573;50.328;15.014;2023-05-27T14:01:07;99553.28;;;24.35;30.49
75895;BME280;64573;50.328;15.014;2023-05-27T14:03:32;99552.94;;;23.87;33.24
75895;BME280;64573;50.328;15.014;2023-05-27T14:05:58;99554.66;;;23.38;32.10
75895;BME280;64573;50.328;15.014;2023-05-27T14:08:23;99545.44;;;24.00;30.83
75895;BME280;64573;50.328;15.014;2023-05-27T14:10:48;99543.34;;;23.68;31.67
75895;BME280;64573;50.328;15.014;2023-05-27T14:13:14;99547.19;;;23.50;32.19
75895;BME280;64573;50.328;15.014;2023-05-27T14:15:39;99537.88;;;23.13;32.12
75895;BME280;64573;50.328;15.014;2023-05-27T14:18:05;99526.69;;;23.70;32.00
75895;BME280;64573;50.328;15.014;2023-05-27T14:20:31;99527.50;;;23.53;32.11
75895;BME280;64573;50.328;15.014;2023-05-27T14:22:56;99520.50;;;23.41;32.69
75895;BME280;64573;50.328;15.014;2023-05-27T14:25:24;99519.22;;;23.65;30.76
75895;BME280;64573;50.328;15.014;2023-05-27T14:27:49;99522.44;;;23.23;30.85
75895;BME280;64573;50.328;15.014;2023-05-27T14:30:15;99521.31;;;24.24;31.15
75895;BME280;64573;50.328;15.014;2023-05-27T14:32:41;99518.41;;;24.08;30.63
75895;BME280;64573;50.328;15.014;2023-05-27T14:35:06;99511.88;;;24.63;29.40
75895;BME280;64573;50.328;15.014;2023-05-27T14:37:32;99512.72;;;25.33;28.10
75895;BME280;64573;50.328;15.014;2023-05-27T14:39:57;99513.25;;;25.30;28.40
75895;BME280;64573;50.328;15.014;2023-05-27T14:42:23;99506.50;;;26.00;26.98
75895;BME280;64573;50.328;15.014;2023-05-27T14:44:48;99504.56;;;25.96;27.33
75895;BME280;64573;50.328;15.014;2023-05-27T14:47:14;99510.75;;;26.44;27.14
75895;BME280;64573;50.328;15.014;2023-05-27T14:49:39;99508.41;;;26.00;28.43
75895;BME280;64573;50.328;15.014;2023-05-27T14:52:05;99499.09;;;24.20;31.50
75895;BME280;64573;50.328;15.014;2023-05-27T14:54:30;99503.31;;;23.06;32.38
75895;BME280;64573;50.328;15.014;2023-05-27T14:57:00;99489.34;;;25.25;29.15
75895;BME280;64573;50.328;15.014;2023-05-27T14:59:35;99491.13;;;23.75;31.14
75895;BME280;64573;50.328;15.014;2023-05-27T15:02:00;99492.38;;;24.11;31.31
75895;BME280;64573;50.328;15.014;2023-05-27T15:04:26;99486.88;;;25.76;28.06
75895;BME280;64573;50.328;15.014;2023-05-27T15:08:01;99483.03;;;26.81;26.58
75895;BME280;64573;50.328;15.014;2023-05-27T15:10:30;99485.69;;;26.25;27.48
75895;BME280;64573;50.328;15.014;2023-05-27T15:12:55;99481.13;;;25.78;28.86
75895;BME280;64573;50.328;15.014;2023-05-27T15:15:29;99483.13;;;25.03;30.54
75895;BME280;64573;50.328;15.014;2023-05-27T15:17:58;99478.38;;;23.42;32.42
75895;BME280;64573;50.328;15.014;2023-05-27T15:20:23;99477.50;;;24.02;31.92
75895;BME280;64573;50.328;15.014;2023-05-27T15:22:48;99483.38;;;24.69;28.78
75895;BME280;64573;50.328;15.014;2023-05-27T15:25:14;99485.63;;;26.04;26.17
75895;BME280;64573;50.328;15.014;2023-05-27T15:27:42;99474.81;;;25.30;27.57
75895;BME280;64573;50.328;15.014;2023-05-27T15:30:08;99476.75;;;24.97;28.26
75895;BME280;64573;50.328;15.014;2023-05-27T15:32:34;99481.16;;;23.85;30.99
75895;BME280;64573;50.328;15.014;2023-05-27T15:35:00;99473.91;;;23.57;30.34
75895;BME280;64573;50.328;15.014;2023-05-27T15:37:29;99472.81;;;23.36;31.08
75895;BME280;64573;50.328;15.014;2023-05-27T15:39:54;99468.47;;;24.28;29.76
75895;BME280;64573;50.328;15.014;2023-05-27T15:42:20;99463.66;;;24.40;29.85
75895;BME280;64573;50.328;15.014;2023-05-27T15:44:45;99472.59;;;25.27;28.76
75895;BME280;64573;50.328;15.014;2023-05-27T15:47:10;99468.03;;;25.48;28.10
75895;BME280;64573;50.328;15.014;2023-05-27T15:49:36;99459.91;;;24.79;28.07
75895;BME280;64573;50.328;15.014;2023-05-27T15:52:01;99460.22;;;23.57;30.20
75895;BME280;64573;50.328;15.014;2023-05-27T15:54:27;99458.75;;;23.50;28.95
75895;BME280;64573;50.328;15.014;2023-05-27T15:56:54;99462.16;;;23.79;29.41
75895;BME280;64573;50.328;15.014;2023-05-27T15:59:19;99456.78;;;24.65;27.14
75895;BME280;64573;50.328;15.014;2023-05-27T16:01:45;99455.22;;;23.71;28.55
75895;BME280;64573;50.328;15.014;2023-05-27T16:04:10;99448.44;;;24.87;27.87
75895;BME280;64573;50.328;15.014;2023-05-27T16:06:36;99453.63;;;25.78;26.07
75895;BME280;64573;50.328;15.014;2023-05-27T16:09:02;99444.34;;;25.79;26.59
75895;BME280;64573;50.328;15.014;2023-05-27T16:11:28;99442.28;;;26.42;25.91
75895;BME280;64573;50.328;15.014;2023-05-27T16:13:53;99428.81;;;26.76;25.42
75895;BME280;64573;50.328;15.014;2023-05-27T16:16:19;99431.13;;;25.23;27.36
75895;BME280;64573;50.328;15.014;2023-05-27T16:18:45;99426.16;;;24.78;28.33
75895;BME280;64573;50.328;15.014;2023-05-27T16:21:11;99424.47;;;23.64;29.92
75895;BME280;64573;50.328;15.014;2023-05-27T16:23:38;99423.59;;;23.20;30.12
75895;BME280;64573;50.328;15.014;2023-05-27T16:26:03;99423.31;;;22.82;30.25
75895;BME280;64573;50.328;15.014;2023-05-27T16:28:29;99412.78;;;24.50;27.78
75895;BME280;64573;50.328;15.014;2023-05-27T16:30:54;99412.91;;;24.11;27.82
75895;BME280;64573;50.328;15.014;2023-05-27T16:33:20;99424.06;;;23.33;29.13
75895;BME280;64573;50.328;15.014;2023-05-27T16:35:45;99422.84;;;24.44;27.65
75895;BME280;64573;50.328;15.014;2023-05-27T16:38:11;99423.44;;;23.48;28.94
75895;BME280;64573;50.328;15.014;2023-05-27T16:40:36;99418.50;;;23.06;29.43
75895;BME280;64573;50.328;15.014;2023-05-27T16:43:02;99420.41;;;24.47;27.68
75895;BME280;64573;50.328;15.014;2023-05-27T16:45:27;99418.75;;;24.46;28.49
75895;BME280;64573;50.328;15.014;2023-05-27T16:47:54;99410.31;;;25.33;27.27
75895;BME280;64573;50.328;15.014;2023-05-27T16:50:21;99413.19;;;25.58;26.79
75895;BME280;64573;50.328;15.014;2023-05-27T16:52:46;99411.03;;;25.13;27.86
75895;BME280;64573;50.328;15.014;2023-05-27T16:55:11;99410.63;;;25.41;28.12
75895;BME280;64573;50.328;15.014;2023-05-27T16:57:37;99415.22;;;25.25;28.25
75895;BME280;64573;50.328;15.014;2023-05-27T17:00:03;99415.56;;;24.97;28.60
75895;BME280;64573;50.328;15.014;2023-05-27T17:02:29;99406.88;;;24.68;29.10
75895;BME280;64573;50.328;15.014;2023-05-27T17:04:54;99414.38;;;24.18;29.91
75895;BME280;64573;50.328;15.014;2023-05-27T17:09:48;99407.03;;;23.97;30.55